createdAt,value
2018-04-01T00:02:02.096Z,7.53
2018-04-01T00:04:29.160Z,9.37
2018-04-01T00:06:56.924Z,10.57
2018-04-01T00:09:24.701Z,7.50
2018-04-01T00:11:52.541Z,9.40
2018-04-01T00:14:19.551Z,14.87
2018-04-01T00:16:46.748Z,7.30
2018-04-01T00:19:13.780Z,11.43
2018-04-01T00:21:40.824Z,13.87
2018-04-01T00:24:07.835Z,11.37
2018-04-01T00:26:34.880Z,13.87
2018-04-01T00:29:01.880Z,9.10
2018-04-01T00:31:28.886Z,12.03
2018-04-01T00:33:56.008Z,9.53
2018-04-01T00:36:23.012Z,9.20
2018-04-01T00:38:50.012Z,8.97
2018-04-01T00:41:17.057Z,10.87
2018-04-01T00:43:44.052Z,12.50
2018-04-01T00:46:11.048Z,11.57
2018-04-01T00:48:38.860Z,11.87
2018-04-01T00:51:05.870Z,11.53
2018-04-01T00:53:33.648Z,11.87
2018-04-01T00:56:00.725Z,12.73
2018-04-01T00:58:27.729Z,10.50
2018-04-01T01:00:55.565Z,11.90
2018-04-01T01:03:22.616Z,11.43
2018-04-01T01:05:49.627Z,12.40
2018-04-01T01:08:16.686Z,11.87
2018-04-01T01:10:43.749Z,12.17
2018-04-01T01:13:12.053Z,12.33
2018-04-01T01:15:39.069Z,10.27
2018-04-01T01:18:06.100Z,11.13
2018-04-01T01:20:33.386Z,11.77
2018-04-01T01:23:00.424Z,11.97
2018-04-01T01:25:29.032Z,10.70
2018-04-01T01:27:56.071Z,16.23
2018-04-01T01:30:23.080Z,13.83
2018-04-01T01:32:50.157Z,12.13
2018-04-01T01:35:17.160Z,12.03
2018-04-01T01:37:44.931Z,12.10
2018-04-01T01:40:12.728Z,12.53
2018-04-01T01:42:39.736Z,12.63
2018-04-01T01:45:07.508Z,12.40
2018-04-01T01:47:34.560Z,13.00
2018-04-01T01:50:01.557Z,12.67
2018-04-01T01:52:28.568Z,12.37
2018-04-01T01:54:55.625Z,11.73
2018-04-01T01:57:22.636Z,13.97
2018-04-01T01:59:49.640Z,11.33
2018-04-01T02:02:16.668Z,14.37
2018-04-01T02:04:43.668Z,11.87
2018-04-01T02:07:10.679Z,14.07
2018-04-01T02:09:37.708Z,11.80
2018-04-01T02:12:04.716Z,11.97
2018-04-01T02:14:31.718Z,11.27
2018-04-01T02:16:58.765Z,14.00
2018-04-01T02:19:25.796Z,15.93
2018-04-01T02:21:52.788Z,12.97
2018-04-01T02:24:20.229Z,13.20
2018-04-01T02:26:47.241Z,11.70
2018-04-01T02:29:15.004Z,10.40
2018-04-01T02:31:42.104Z,13.10
2018-04-01T02:34:09.081Z,13.33
2018-04-01T02:36:36.084Z,11.80
2018-04-01T02:39:03.134Z,11.90
2018-04-01T02:41:30.132Z,12.70
2018-04-01T02:43:57.996Z,12.43
2018-04-01T02:46:25.024Z,13.27
2018-04-01T02:48:52.029Z,13.93
2018-04-01T02:51:19.801Z,12.97
2018-04-01T02:53:46.877Z,12.10
2018-04-01T02:56:13.885Z,14.40
2018-04-01T02:58:40.901Z,13.80
2018-04-01T03:01:07.993Z,10.63
2018-04-01T03:03:35.001Z,12.63
2018-04-01T03:06:02.000Z,13.63
2018-04-01T03:08:29.047Z,13.20
2018-04-01T03:10:56.068Z,13.00
2018-04-01T03:13:23.071Z,12.67
2018-04-01T03:15:50.148Z,14.07
2018-04-01T03:18:17.155Z,12.83
2018-04-01T03:20:44.164Z,10.70
2018-04-01T03:23:11.228Z,11.83
2018-04-01T03:25:38.249Z,13.20
2018-04-01T03:28:05.265Z,11.80
2018-04-01T03:30:32.309Z,10.43
2018-04-01T03:32:59.348Z,12.57
2018-04-01T03:35:26.360Z,10.77
2018-04-01T03:37:54.225Z,9.73
2018-04-01T03:40:22.000Z,11.03
2018-04-01T03:42:49.760Z,9.13
2018-04-01T03:45:16.807Z,8.80
2018-04-01T03:47:43.812Z,8.83
2018-04-01T03:50:10.812Z,10.60
2018-04-01T03:52:38.632Z,8.77
2018-04-01T03:55:05.637Z,10.00
2018-04-01T03:57:32.637Z,12.27
2018-04-01T03:59:59.717Z,8.30
2018-04-01T04:02:26.720Z,9.17
2018-04-01T04:04:53.730Z,10.87
2018-04-01T04:07:20.764Z,9.27
2018-04-01T04:09:47.764Z,8.37
2018-04-01T04:12:14.768Z,9.53
2018-04-01T04:14:41.804Z,9.77
2018-04-01T04:17:08.812Z,10.33
2018-04-01T04:19:35.818Z,11.07
2018-04-01T04:22:02.868Z,8.57
2018-04-01T04:24:30.632Z,9.30
2018-04-01T04:26:58.407Z,10.47
2018-04-01T04:29:26.302Z,9.87
2018-04-01T04:31:53.376Z,8.87
2018-04-01T04:34:20.376Z,10.50
2018-04-01T04:36:47.424Z,9.33
2018-04-01T04:39:14.425Z,9.20
2018-04-01T04:41:41.440Z,10.23
2018-04-01T04:44:08.483Z,8.87
2018-04-01T04:46:35.480Z,9.40
2018-04-01T04:49:02.484Z,9.57
2018-04-01T04:51:29.529Z,9.17
2018-04-01T04:53:56.924Z,10.03
2018-04-01T04:56:23.930Z,9.70
2018-04-01T04:58:50.996Z,8.33
2018-04-01T05:01:17.996Z,9.27
2018-04-01T05:03:44.992Z,9.80
2018-04-01T05:06:12.028Z,8.20
2018-04-01T05:08:39.044Z,9.20
2018-04-01T05:37:04.693Z,8.90
2018-04-01T05:39:31.698Z,9.07
2018-04-01T05:41:58.706Z,9.73
2018-04-01T05:44:25.812Z,7.73
2018-04-01T05:46:53.596Z,7.13
2018-04-01T05:49:20.600Z,8.80
2018-04-01T05:51:47.639Z,8.00
2018-04-01T05:54:14.645Z,7.40
2018-04-01T05:56:41.662Z,6.10
2018-04-01T05:59:08.710Z,8.37
2018-04-01T06:01:36.487Z,8.17
2018-04-01T06:04:04.259Z,7.07
2018-04-01T06:06:31.304Z,6.77
2018-04-01T06:08:58.304Z,7.13
2018-04-01T06:11:25.308Z,7.30
2018-04-01T06:13:52.387Z,7.57
2018-04-01T06:16:19.388Z,6.87
2018-04-01T06:18:47.160Z,7.50
2018-04-01T06:21:15.018Z,8.80
2018-04-01T06:23:41.980Z,9.30
2018-04-01T06:26:08.979Z,5.00
2018-04-01T06:28:36.035Z,6.53
2018-04-01T06:31:03.056Z,8.00
2018-04-01T06:33:30.056Z,6.87
2018-04-01T06:35:57.088Z,7.07
2018-04-01T06:38:24.092Z,6.60
2018-04-01T06:40:51.104Z,7.30
2018-04-01T06:43:18.176Z,6.57
2018-04-01T06:45:45.184Z,6.13
2018-04-01T06:48:12.180Z,6.77
2018-04-01T06:50:39.226Z,8.93
2018-04-01T06:53:06.232Z,17.13
2018-04-01T06:55:33.244Z,13.23
2018-04-01T06:58:00.289Z,15.83
2018-04-01T07:00:27.296Z,6.57
2018-04-01T07:02:54.292Z,8.10
2018-04-01T07:05:21.364Z,5.97
2018-04-01T07:07:48.382Z,5.10
2018-04-01T07:10:15.384Z,6.50
2018-04-01T07:12:42.412Z,6.07
2018-04-01T07:15:09.412Z,7.03
2018-04-01T07:17:36.416Z,5.37
2018-04-01T07:20:03.515Z,5.67
2018-04-01T07:22:30.609Z,5.23
2018-04-01T07:24:57.655Z,7.03
2018-04-01T07:27:24.684Z,4.83
2018-04-01T07:29:52.041Z,4.97
2018-04-01T07:32:19.036Z,6.50
2018-04-01T07:34:46.080Z,8.60
2018-04-01T07:37:13.077Z,6.23
2018-04-01T07:39:40.078Z,7.17
2018-04-01T07:42:07.160Z,5.30
2018-04-01T07:44:34.165Z,6.77
2018-04-01T07:47:01.169Z,7.60
2018-04-01T07:49:28.204Z,7.10
2018-04-01T07:51:55.216Z,6.43
2018-04-01T07:54:22.221Z,5.43
2018-04-01T07:56:49.325Z,8.50
2018-04-01T07:59:16.307Z,7.47
2018-04-01T08:01:43.309Z,6.07
2018-04-01T08:04:10.345Z,6.27
2018-04-01T08:06:37.351Z,6.73
2018-04-01T08:09:04.352Z,5.00
2018-04-01T08:11:31.371Z,6.27
2018-04-01T08:13:58.376Z,4.23
2018-04-01T08:16:26.148Z,5.23
2018-04-01T08:18:53.958Z,4.13
2018-04-01T08:21:20.960Z,4.00
2018-04-01T08:23:47.956Z,5.00
2018-04-01T08:26:15.030Z,4.37
2018-04-01T08:28:42.048Z,4.53
2018-04-01T08:31:09.053Z,5.37
2018-04-01T08:33:36.896Z,5.03
2018-04-01T08:36:03.928Z,5.60
2018-04-01T08:38:30.923Z,7.67
2018-04-01T08:40:58.736Z,4.67
2018-04-01T08:43:25.752Z,5.13
2018-04-01T08:45:52.780Z,6.13
2018-04-01T08:48:20.629Z,4.73
2018-04-01T08:50:47.640Z,4.20
2018-04-01T08:53:14.665Z,5.30
2018-04-01T08:55:41.706Z,5.57
2018-04-01T08:58:08.716Z,4.63
2018-04-01T09:00:35.733Z,5.03
2018-04-01T09:03:02.805Z,6.17
2018-04-01T09:05:29.798Z,3.93
2018-04-01T09:07:57.590Z,5.47
2018-04-01T09:10:24.620Z,5.37
2018-04-01T09:12:51.628Z,5.00
2018-04-01T09:15:18.629Z,4.63
2018-04-01T09:17:45.776Z,4.33
2018-04-01T09:20:12.820Z,6.43
2018-04-01T09:22:39.819Z,6.43
2018-04-01T09:25:06.900Z,7.97
2018-04-01T09:27:33.926Z,4.40
2018-04-01T09:30:00.937Z,4.73
2018-04-01T09:32:27.980Z,4.90
2018-04-01T09:34:54.983Z,5.67
2018-04-01T09:37:21.984Z,5.43
2018-04-01T09:39:49.089Z,5.07
2018-04-01T09:42:16.107Z,4.90
2018-04-01T09:44:43.112Z,5.20
2018-04-01T09:47:10.184Z,5.43
2018-04-01T09:49:37.184Z,6.33
2018-04-01T09:52:04.188Z,6.30
2018-04-01T09:54:31.234Z,4.73
2018-04-01T09:56:58.227Z,6.07
2018-04-01T09:59:25.231Z,5.87
2018-04-01T10:01:52.756Z,5.50
2018-04-01T10:04:20.252Z,5.23
2018-04-01T10:06:47.750Z,6.10
2018-04-01T10:09:15.324Z,7.57
2018-04-01T10:11:43.607Z,7.03
2018-04-01T10:14:11.864Z,6.87
2018-04-01T10:16:39.433Z,5.13
2018-04-01T10:19:06.948Z,6.10
2018-04-01T10:21:34.464Z,5.70
2018-04-01T10:24:02.749Z,5.83
2018-04-01T10:26:30.240Z,6.80
2018-04-01T10:28:57.736Z,7.33
2018-04-01T10:31:25.255Z,6.83
2018-04-01T10:33:52.752Z,6.50
2018-04-01T10:36:20.248Z,5.53
2018-04-01T10:38:48.576Z,8.70
2018-04-01T10:41:16.068Z,5.27
2018-04-01T10:43:43.559Z,6.53
2018-04-01T10:46:11.104Z,6.37
2018-04-01T10:48:39.356Z,6.00
2018-04-01T10:51:06.848Z,5.10
2018-04-01T10:53:35.136Z,6.60
2018-04-01T10:56:02.148Z,5.43
2018-04-01T10:58:29.153Z,7.13
2018-04-01T11:00:57.011Z,12.40
2018-04-01T11:03:24.022Z,7.70
2018-04-01T11:05:51.032Z,7.40
2018-04-01T11:08:18.092Z,6.53
2018-04-01T11:10:45.088Z,6.23
2018-04-01T11:13:12.089Z,6.13
2018-04-01T11:15:39.129Z,7.30
2018-04-01T11:18:06.130Z,6.10
2018-04-01T11:20:33.912Z,6.97
2018-04-01T11:23:00.950Z,6.90
2018-04-01T11:25:28.052Z,6.33
2018-04-01T11:27:55.051Z,5.37
2018-04-01T11:30:22.087Z,6.03
2018-04-01T11:32:49.088Z,5.77
2018-04-01T11:35:16.085Z,6.17
2018-04-01T11:37:43.116Z,7.20
2018-04-01T11:40:10.128Z,6.80
2018-04-01T11:42:37.128Z,6.87
2018-04-01T11:45:05.134Z,7.13
2018-04-01T11:47:32.165Z,6.40
2018-04-01T11:49:59.159Z,6.03
2018-04-01T11:52:26.220Z,6.53
2018-04-01T11:54:53.229Z,6.93
2018-04-01T11:57:20.241Z,7.63
2018-04-01T11:59:48.085Z,6.70
2018-04-01T12:02:15.226Z,6.93
2018-04-01T12:04:42.257Z,6.17
2018-04-01T12:07:09.340Z,6.23
2018-04-01T12:09:36.426Z,6.60
2018-04-01T12:12:03.579Z,6.60
2018-04-01T12:14:30.637Z,5.90
2018-04-01T12:16:57.641Z,6.90
2018-04-01T12:19:24.649Z,6.47
2018-04-01T12:21:51.687Z,6.80
2018-04-01T12:24:18.700Z,6.53
2018-04-01T12:26:46.482Z,6.80
2018-04-01T12:29:13.571Z,6.40
2018-04-01T12:31:40.590Z,7.63
2018-04-01T12:34:07.592Z,7.33
2018-04-01T12:36:34.636Z,7.17
2018-04-01T12:39:01.636Z,7.03
2018-04-01T12:41:28.643Z,8.20
2018-04-01T12:43:55.716Z,7.43
2018-04-01T12:46:22.713Z,6.40
2018-04-01T12:48:49.712Z,6.47
2018-04-01T12:51:16.815Z,6.03
2018-04-01T12:53:43.825Z,5.60
2018-04-01T12:56:10.827Z,6.23
2018-04-01T12:58:37.888Z,5.67
2018-04-01T13:01:04.896Z,6.03
2018-04-01T13:03:31.901Z,7.03
2018-04-01T13:05:58.920Z,7.37
2018-04-01T13:08:25.967Z,5.63
2018-04-01T13:10:53.792Z,6.27
2018-04-01T13:13:20.841Z,6.53
2018-04-01T13:15:47.864Z,5.97
2018-04-01T13:18:15.636Z,6.20
2018-04-01T13:20:42.672Z,7.67
2018-04-01T13:23:09.668Z,5.37
2018-04-01T13:25:36.672Z,6.50
2018-04-01T13:28:03.704Z,6.10
2018-04-01T13:30:30.701Z,6.63
2018-04-01T13:32:57.706Z,6.43
2018-04-01T13:35:24.784Z,6.10
2018-04-01T13:37:52.564Z,5.97
2018-04-01T13:40:19.577Z,4.90
2018-04-01T13:42:46.661Z,6.27
2018-04-01T13:45:13.669Z,6.90
2018-04-01T13:47:40.697Z,6.93
2018-04-01T13:50:07.723Z,5.60
2018-04-01T13:52:35.145Z,5.47
2018-04-01T13:55:02.908Z,6.87
2018-04-01T13:57:30.743Z,6.73
2018-04-01T13:59:58.640Z,6.00
2018-04-01T14:02:25.644Z,5.67
2018-04-01T14:04:52.676Z,4.30
2018-04-01T14:07:19.682Z,5.47
2018-04-01T14:09:46.693Z,5.87
2018-04-01T14:12:14.073Z,5.53
2018-04-01T14:14:41.078Z,5.50
2018-04-01T14:17:08.081Z,6.13
2018-04-01T14:19:35.108Z,5.13
2018-04-01T14:22:02.108Z,5.33
2018-04-01T14:24:29.116Z,5.13
2018-04-01T14:26:56.150Z,6.17
2018-04-01T14:29:23.176Z,6.40
2018-04-01T14:31:50.188Z,6.53
2018-04-01T14:34:18.014Z,5.63
2018-04-01T14:36:45.020Z,5.97
2018-04-01T14:39:12.020Z,6.30
2018-04-01T14:41:39.104Z,6.00
2018-04-01T14:44:06.109Z,6.03
2018-04-01T14:46:33.121Z,6.40
2018-04-01T14:49:00.152Z,6.73
2018-04-01T14:51:27.164Z,5.73
2018-04-01T14:53:54.169Z,6.00
2018-04-01T14:56:21.212Z,8.13
2018-04-01T14:58:48.216Z,6.23
2018-04-01T15:01:15.406Z,6.80
2018-04-01T15:03:42.456Z,6.07
2018-04-01T15:06:10.227Z,6.40
2018-04-01T15:08:37.232Z,8.43
2018-04-01T15:11:04.416Z,6.77
2018-04-01T15:13:31.575Z,5.10
2018-04-01T15:16:00.766Z,5.83
2018-04-01T15:18:29.337Z,5.47
2018-04-01T15:20:56.349Z,5.37
2018-04-01T15:23:23.375Z,5.53
2018-04-01T15:25:50.440Z,7.20
2018-04-01T15:28:17.445Z,6.70
2018-04-01T15:30:45.300Z,7.03
2018-04-01T15:33:12.394Z,5.87
2018-04-01T15:35:40.313Z,5.60
2018-04-01T15:38:07.360Z,6.97
2018-04-01T15:40:34.521Z,6.80
2018-04-01T15:43:01.536Z,6.07
2018-04-01T15:45:28.580Z,6.13
2018-04-01T15:47:55.675Z,6.53
2018-04-01T15:50:22.685Z,4.73
2018-04-01T15:52:49.684Z,7.40
2018-04-01T15:55:16.772Z,6.83
2018-04-01T15:57:43.795Z,6.33
2018-04-01T16:00:10.805Z,6.73
2018-04-01T16:02:37.872Z,6.17
2018-04-01T16:05:04.858Z,5.83
2018-04-01T16:07:31.887Z,7.10
2018-04-01T16:09:59.716Z,8.17
2018-04-01T16:12:26.724Z,5.67
2018-04-01T16:14:53.738Z,7.07
2018-04-01T16:17:21.537Z,7.07
2018-04-01T16:19:48.545Z,7.23
2018-04-01T16:22:15.560Z,7.10
2018-04-01T16:24:42.599Z,7.93
2018-04-01T16:27:09.608Z,5.80
2018-04-01T16:29:37.389Z,10.30
2018-04-01T16:32:04.418Z,5.47
2018-04-01T16:34:32.188Z,5.93
2018-04-01T16:36:59.286Z,6.77
2018-04-01T16:39:26.369Z,6.47
2018-04-01T16:41:53.373Z,8.20
2018-04-01T16:44:20.641Z,7.40
2018-04-01T16:46:47.710Z,8.07
2018-04-01T16:49:14.704Z,6.67
2018-04-01T16:51:41.703Z,7.77
2018-04-01T16:54:08.777Z,6.50
2018-04-01T16:56:35.776Z,8.33
2018-04-01T16:59:02.776Z,7.23
2018-04-01T17:01:29.824Z,8.17
2018-04-01T17:03:57.600Z,8.47
2018-04-01T17:06:25.375Z,5.70
2018-04-01T17:08:52.424Z,7.07
2018-04-01T17:11:19.429Z,7.03
2018-04-01T17:13:46.434Z,6.63
2018-04-01T17:16:13.504Z,5.93
2018-04-01T17:18:40.528Z,7.43
2018-04-01T17:21:07.528Z,6.70
2018-04-01T17:23:34.564Z,7.80
2018-04-01T17:26:01.566Z,6.90
2018-04-01T17:28:28.571Z,7.37
2018-04-01T17:30:55.625Z,6.03
2018-04-01T17:33:22.632Z,5.80
2018-04-01T17:35:49.657Z,6.40
2018-04-01T17:38:16.731Z,6.63
2018-04-01T17:40:43.744Z,8.10
2018-04-01T17:43:10.755Z,6.77
2018-04-01T17:45:37.805Z,6.17
2018-04-01T17:48:04.800Z,7.20
2018-04-01T17:50:31.817Z,6.40
2018-04-01T17:52:58.912Z,7.30
2018-04-01T17:55:25.914Z,6.03
2018-04-01T17:57:52.913Z,7.83
2018-04-01T18:00:19.952Z,6.93
2018-04-01T18:02:46.960Z,7.53
2018-04-01T18:05:14.019Z,9.00
2018-04-01T18:07:41.088Z,7.70
2018-04-01T18:10:08.864Z,7.70
2018-04-01T18:12:35.868Z,8.77
2018-04-01T18:15:02.950Z,8.10
2018-04-01T18:17:29.957Z,5.60
2018-04-01T18:19:56.971Z,7.20
2018-04-01T18:22:24.029Z,5.93
2018-04-01T18:24:51.034Z,6.67
2018-04-01T18:27:18.039Z,6.97
2018-04-01T18:29:45.070Z,6.70
2018-04-01T18:32:12.076Z,8.63
2018-04-01T18:34:39.096Z,6.17
2018-04-01T18:37:06.124Z,7.00
2018-04-01T18:39:33.126Z,6.80
2018-04-01T18:42:00.141Z,6.60
2018-04-01T18:44:27.252Z,7.03
2018-04-01T18:46:54.270Z,7.33
2018-04-01T18:49:21.284Z,6.93
2018-04-01T18:51:48.326Z,7.40
2018-04-01T18:54:15.354Z,8.60
2018-04-01T18:56:42.354Z,7.97
2018-04-01T18:59:09.398Z,7.60
2018-04-01T19:01:36.405Z,7.60
2018-04-01T19:04:03.411Z,9.47
2018-04-01T19:06:30.488Z,7.40
2018-04-01T19:08:57.500Z,9.40
2018-04-01T19:11:24.589Z,9.47
2018-04-01T19:13:51.648Z,8.87
2018-04-01T19:16:19.153Z,7.73
2018-04-01T19:18:46.733Z,9.47
2018-04-01T19:21:14.389Z,8.67
2018-04-01T19:23:41.943Z,8.97
2018-04-01T19:26:09.441Z,10.13
2018-04-01T19:28:37.003Z,7.20
2018-04-01T19:31:04.507Z,9.20
2018-04-01T19:33:32.061Z,8.37
2018-04-01T19:35:59.618Z,9.30
2018-04-01T19:38:27.120Z,9.00
2018-04-01T19:40:54.711Z,8.17
2018-04-01T19:43:22.252Z,8.37
2018-04-01T19:45:50.516Z,7.50
2018-04-01T19:48:18.280Z,9.33
2018-04-01T19:50:45.844Z,8.70
2018-04-01T19:53:13.513Z,9.67
2018-04-01T19:55:41.032Z,7.37
2018-04-01T19:58:08.561Z,8.30
2018-04-01T20:00:37.626Z,8.60
2018-04-01T20:03:05.129Z,7.53
2018-04-01T20:05:32.939Z,9.00
2018-04-01T20:08:01.409Z,9.13
2018-04-01T20:10:28.926Z,9.10
2018-04-01T20:12:56.508Z,9.73
2018-04-01T20:15:24.773Z,8.47
2018-04-01T20:17:52.286Z,8.93
2018-04-01T20:20:19.844Z,9.60
2018-04-01T20:22:47.333Z,10.23
2018-04-01T20:25:15.661Z,9.50
2018-04-01T20:27:43.370Z,10.00
2018-04-01T20:30:10.881Z,8.17
2018-04-01T20:32:38.401Z,9.03
2018-04-01T20:35:06.020Z,8.60
2018-04-01T20:37:33.631Z,10.70
2018-04-01T20:40:01.893Z,10.00
2018-04-01T20:42:29.627Z,10.00
2018-04-01T20:44:57.169Z,9.73
2018-04-01T20:47:24.656Z,9.87
2018-04-01T20:49:52.209Z,9.27
2018-04-01T20:52:20.583Z,9.20
2018-04-01T20:54:48.084Z,9.97
2018-04-01T20:57:15.689Z,13.33
2018-04-01T20:59:43.298Z,10.33
2018-04-01T21:02:10.798Z,10.03
2018-04-01T21:04:38.333Z,9.40
2018-04-01T21:07:06.164Z,11.07
2018-04-01T21:09:34.460Z,11.30
2018-04-01T21:12:02.120Z,10.63
2018-04-01T21:14:29.619Z,9.50
2018-04-01T21:16:57.115Z,11.13
2018-04-01T21:19:24.692Z,10.47
2018-04-01T21:21:52.276Z,12.77
2018-04-01T21:24:19.775Z,11.77
2018-04-01T21:26:47.350Z,12.30
2018-04-01T21:29:14.848Z,10.73
2018-04-01T21:31:42.348Z,12.23
2018-04-01T21:34:09.949Z,11.37
2018-04-01T21:36:37.456Z,12.33
2018-04-01T21:39:05.844Z,10.87
2018-04-01T21:41:33.415Z,10.43
2018-04-01T21:44:00.920Z,11.27
2018-04-01T21:46:28.427Z,11.17
2018-04-01T21:48:56.007Z,11.40
2018-04-01T21:51:23.491Z,12.23
2018-04-01T21:53:50.989Z,9.90
2018-04-01T21:56:19.342Z,11.43
2018-04-01T21:58:46.896Z,11.13
2018-04-01T22:01:14.389Z,10.27
2018-04-01T22:03:42.728Z,11.13
2018-04-01T22:06:10.842Z,10.73
2018-04-01T22:08:38.345Z,10.93
2018-04-01T22:11:05.889Z,9.67
2018-04-01T22:13:33.406Z,11.93
2018-04-01T22:16:00.908Z,11.47
2018-04-01T22:18:28.460Z,12.47
2018-04-01T22:23:49.628Z,10.43
2018-04-01T22:26:17.124Z,11.67
2018-04-01T22:28:44.620Z,11.73
2018-04-01T22:31:12.184Z,11.30
2018-04-01T22:33:39.717Z,13.17
2018-04-01T22:36:07.234Z,14.63
2018-04-01T22:38:34.756Z,12.00
2018-04-01T22:41:03.063Z,13.70
2018-04-01T22:43:30.560Z,11.07
2018-04-01T22:45:58.128Z,11.63
2018-04-01T22:48:25.623Z,13.60
2018-04-01T22:50:53.892Z,14.43
2018-04-01T22:53:22.177Z,15.57
2018-04-01T22:55:51.974Z,15.50
2018-04-01T22:58:20.245Z,14.87
2018-04-01T23:00:47.771Z,14.57
2018-04-01T23:03:15.272Z,16.57
2018-04-01T23:05:43.540Z,15.97
2018-04-01T23:08:11.112Z,15.20
2018-04-01T23:10:38.616Z,15.23
2018-04-01T23:13:06.112Z,18.83
2018-04-01T23:15:33.676Z,16.73
2018-04-01T23:18:01.182Z,14.33
2018-04-01T23:20:28.792Z,16.97
2018-04-01T23:22:56.342Z,14.60
2018-04-01T23:25:23.847Z,16.40
2018-04-01T23:27:52.144Z,14.67
2018-04-01T23:30:19.741Z,15.40
2018-04-01T23:32:47.240Z,14.87
2018-04-01T23:35:14.757Z,13.57
2018-04-01T23:37:42.284Z,16.73
2018-04-01T23:40:09.792Z,15.97
2018-04-01T23:42:37.300Z,13.20
2018-04-01T23:45:04.852Z,16.57
2018-04-01T23:47:32.360Z,16.90
2018-04-01T23:49:59.872Z,13.63
2018-04-01T23:52:28.166Z,12.97
2018-04-01T23:54:55.676Z,14.33
2018-04-01T23:57:23.196Z,15.20
2018-04-01T23:59:50.768Z,15.67
